createdAt,value
2018-03-29T00:01:02.266Z,26.33
2018-03-29T00:03:30.457Z,27.20
2018-03-29T00:05:58.518Z,25.60
2018-03-29T00:08:25.931Z,23.90
2018-03-29T00:10:53.374Z,27.60
2018-03-29T00:13:20.777Z,21.30
2018-03-29T00:15:48.202Z,20.00
2018-03-29T00:18:15.630Z,16.60
2018-03-29T00:20:43.042Z,14.83
2018-03-29T00:23:10.469Z,16.07
2018-03-29T00:25:37.896Z,14.63
2018-03-29T00:28:06.072Z,14.83
2018-03-29T00:30:33.502Z,12.95
2018-03-29T00:33:00.918Z,13.90
2018-03-29T00:35:28.392Z,15.47
2018-03-29T00:37:55.746Z,14.43
2018-03-29T00:40:23.917Z,15.33
2018-03-29T00:42:53.021Z,12.97
2018-03-29T00:45:20.444Z,16.60
2018-03-29T00:47:47.877Z,11.45
2018-03-29T00:50:16.052Z,11.03
2018-03-29T00:52:44.232Z,11.27
2018-03-29T00:55:11.654Z,10.30
2018-03-29T00:57:39.078Z,10.80
2018-03-29T01:00:07.282Z,12.07
2018-03-29T01:02:34.681Z,9.70
2018-03-29T01:05:02.101Z,10.73
2018-03-29T01:07:30.295Z,9.60
2018-03-29T01:09:58.465Z,8.70
2018-03-29T01:12:26.679Z,7.90
2018-03-29T01:14:54.868Z,8.43
2018-03-29T01:17:23.194Z,9.43
2018-03-29T01:19:50.602Z,8.87
2018-03-29T01:22:18.782Z,10.00
2018-03-29T01:24:46.958Z,9.37
2018-03-29T01:27:14.394Z,7.90
2018-03-29T01:29:41.794Z,9.40
2018-03-29T01:32:09.318Z,7.80
2018-03-29T01:34:36.761Z,9.00
2018-03-29T01:37:05.060Z,7.53
2018-03-29T01:39:32.466Z,6.97
2018-03-29T01:41:59.869Z,7.23
2018-03-29T01:44:28.040Z,6.13
2018-03-29T01:46:55.479Z,6.10
2018-03-29T01:49:23.802Z,7.00
2018-03-29T01:51:51.226Z,7.70
2018-03-29T01:54:18.646Z,6.83
2018-03-29T01:56:46.046Z,6.00
2018-03-29T01:59:13.476Z,4.90
2018-03-29T02:01:40.886Z,6.00
2018-03-29T02:04:08.298Z,6.93
2018-03-29T02:06:35.741Z,6.40
2018-03-29T02:09:03.162Z,6.12
2018-03-29T02:11:30.596Z,5.30
2018-03-29T02:13:58.034Z,6.10
2018-03-29T02:16:25.506Z,5.20
2018-03-29T02:18:52.927Z,5.83
2018-03-29T02:21:20.334Z,5.72
2018-03-29T02:23:47.746Z,5.33
2018-03-29T02:26:15.155Z,6.10
2018-03-29T02:28:42.561Z,6.87
2018-03-29T02:31:09.994Z,5.67
2018-03-29T02:33:37.399Z,4.87
2018-03-29T02:36:04.826Z,5.00
2018-03-29T02:38:32.243Z,4.00
2018-03-29T02:40:59.649Z,2.73
2018-03-29T02:43:27.831Z,3.77
2018-03-29T02:45:56.017Z,4.10
2018-03-29T02:48:25.107Z,2.30
2018-03-29T02:50:52.515Z,2.97
2018-03-29T02:53:19.940Z,3.60
2018-03-29T02:55:48.127Z,4.00
2018-03-29T02:58:15.538Z,2.77
2018-03-29T03:00:42.962Z,2.90
2018-03-29T03:03:10.370Z,3.60
2018-03-29T03:05:37.803Z,3.17
2018-03-29T03:08:05.204Z,3.80
2018-03-29T03:10:32.614Z,3.83
2018-03-29T03:13:00.026Z,3.20
2018-03-29T03:15:28.214Z,3.63
2018-03-29T03:17:55.613Z,4.53
2018-03-29T03:20:23.028Z,3.70
2018-03-29T03:22:51.430Z,3.07
2018-03-29T03:25:19.609Z,4.40
2018-03-29T03:27:47.832Z,3.30
2018-03-29T03:30:15.191Z,3.27
2018-03-29T03:32:42.589Z,7.03
2018-03-29T03:35:10.006Z,3.70
2018-03-29T03:37:37.452Z,4.27
2018-03-29T03:40:04.866Z,4.40
2018-03-29T03:42:32.264Z,4.70
2018-03-29T03:44:59.682Z,5.78
2018-03-29T03:47:27.863Z,5.20
2018-03-29T03:49:55.789Z,8.35
2018-03-29T03:52:23.189Z,6.90
2018-03-29T03:54:50.594Z,6.27
2018-03-29T03:57:17.998Z,7.00
2018-03-29T03:59:45.418Z,6.33
2018-03-29T04:02:13.601Z,7.90
2018-03-29T04:04:41.037Z,7.87
2018-03-29T04:07:08.454Z,6.00
2018-03-29T04:09:35.870Z,6.80
2018-03-29T04:12:03.290Z,5.00
2018-03-29T04:14:30.702Z,5.80
2018-03-29T04:16:58.163Z,6.15
2018-03-29T04:19:26.225Z,6.65
2018-03-29T04:21:53.641Z,5.43
2018-03-29T04:24:21.095Z,6.20
2018-03-29T04:26:48.502Z,4.60
2018-03-29T04:29:16.702Z,5.33
2018-03-29T04:31:44.101Z,7.00
2018-03-29T04:34:11.538Z,5.40
2018-03-29T04:36:39.022Z,6.90
2018-03-29T04:39:09.246Z,9.50
2018-03-29T04:41:36.654Z,4.65
2018-03-29T04:44:04.081Z,7.40
2018-03-29T04:46:31.537Z,7.83
2018-03-29T04:48:58.954Z,7.70
2018-03-29T04:51:26.812Z,6.68
2018-03-29T04:53:54.234Z,8.23
2018-03-29T04:56:22.411Z,6.23
2018-03-29T04:58:49.820Z,6.77
2018-03-29T05:01:17.263Z,8.27
2018-03-29T05:03:45.509Z,13.53
2018-03-29T05:06:12.931Z,8.23
2018-03-29T05:08:40.372Z,11.80
2018-03-29T05:11:07.786Z,6.53
2018-03-29T05:13:35.220Z,5.35
2018-03-29T05:16:03.386Z,5.47
2018-03-29T05:18:30.823Z,6.03
2018-03-29T05:20:58.210Z,7.50
2018-03-29T05:23:25.622Z,7.40
2018-03-29T05:25:53.059Z,8.80
2018-03-29T05:28:20.467Z,8.50
2018-03-29T05:30:47.963Z,17.07
2018-03-29T05:33:15.379Z,11.10
2018-03-29T05:35:43.578Z,10.87
2018-03-29T05:38:10.999Z,13.27
2018-03-29T05:40:38.421Z,13.80
2018-03-29T05:43:05.833Z,12.37
2018-03-29T05:45:33.257Z,10.77
2018-03-29T05:48:00.672Z,11.67
2018-03-29T05:50:28.092Z,12.80
2018-03-29T05:52:56.278Z,15.00
2018-03-29T05:55:23.693Z,16.23
2018-03-29T05:57:51.102Z,13.47
2018-03-29T06:00:19.282Z,18.27
2018-03-29T06:02:46.707Z,19.27
2018-03-29T06:05:14.149Z,21.80
2018-03-29T06:07:43.299Z,15.10
2018-03-29T06:10:10.739Z,19.10
2018-03-29T06:12:38.146Z,16.63
2018-03-29T06:15:12.154Z,17.50
2018-03-29T06:17:42.037Z,15.83
2018-03-29T06:20:10.186Z,15.97
2018-03-29T06:22:38.666Z,15.50
2018-03-29T06:25:06.163Z,17.08
2018-03-29T06:27:33.606Z,16.27
2018-03-29T06:30:01.016Z,11.80
2018-03-29T06:32:29.387Z,12.15
2018-03-29T06:34:58.490Z,13.60
2018-03-29T06:37:26.670Z,14.53
2018-03-29T06:39:54.094Z,10.20
2018-03-29T06:42:21.503Z,15.90
2018-03-29T06:44:49.676Z,11.43
2018-03-29T06:47:17.110Z,11.67
2018-03-29T06:49:44.556Z,13.47
2018-03-29T06:52:12.075Z,18.42
2018-03-29T06:54:39.483Z,20.00
2018-03-29T06:57:07.674Z,9.90
2018-03-29T06:59:35.105Z,15.35
2018-03-29T07:02:02.578Z,14.17
2018-03-29T07:04:29.997Z,19.70
2018-03-29T07:06:57.443Z,12.27
2018-03-29T07:09:25.641Z,13.10
2018-03-29T07:11:53.114Z,20.93
2018-03-29T07:14:20.527Z,14.43
2018-03-29T07:16:47.939Z,22.33
2018-03-29T07:19:15.354Z,19.27
2018-03-29T07:21:42.821Z,23.60
2018-03-29T07:24:10.234Z,24.03
2018-03-29T07:26:38.398Z,23.60
2018-03-29T07:29:05.817Z,17.83
2018-03-29T07:31:33.247Z,21.23
2018-03-29T07:34:01.429Z,23.37
2018-03-29T07:36:29.792Z,17.40
2018-03-29T07:38:57.208Z,21.20
2018-03-29T07:41:25.720Z,22.87
2018-03-29T07:43:53.210Z,20.73
2018-03-29T07:46:20.643Z,21.43
2018-03-29T07:48:48.063Z,22.33
2018-03-29T07:51:15.476Z,24.70
2018-03-29T07:53:42.913Z,23.50
2018-03-29T07:56:10.360Z,25.57
2018-03-29T07:58:37.769Z,24.87
2018-03-29T08:01:05.950Z,26.17
2018-03-29T08:03:34.136Z,20.77
2018-03-29T08:06:02.323Z,24.27
2018-03-29T08:08:31.157Z,21.77
2018-03-29T08:10:58.554Z,26.00
2018-03-29T08:13:25.986Z,27.20
2018-03-29T08:15:53.393Z,30.20
2018-03-29T08:18:20.829Z,26.17
2018-03-29T08:20:48.253Z,25.77
2018-03-29T08:23:16.446Z,25.53
2018-03-29T08:25:44.625Z,37.93
2018-03-29T08:28:12.039Z,26.67
2018-03-29T08:30:39.481Z,25.23
2018-03-29T08:33:07.708Z,24.70
2018-03-29T08:35:35.844Z,26.10
2018-03-29T08:38:04.030Z,25.00
2018-03-29T08:40:31.465Z,26.23
2018-03-29T08:42:58.870Z,25.37
2018-03-29T08:45:27.066Z,26.80
2018-03-29T08:47:55.279Z,25.40
2018-03-29T08:50:22.691Z,29.70
2018-03-29T08:52:50.102Z,22.63
2018-03-29T08:55:17.528Z,26.93
2018-03-29T08:57:44.950Z,27.73
2018-03-29T09:00:12.395Z,23.17
2018-03-29T09:02:40.558Z,25.13
2018-03-29T09:05:08.746Z,27.20
2018-03-29T09:07:36.172Z,24.20
2018-03-29T09:10:03.581Z,23.10
2018-03-29T09:12:32.489Z,26.17
2018-03-29T09:15:01.590Z,22.73
2018-03-29T09:17:29.789Z,24.43
2018-03-29T09:19:57.989Z,25.17
2018-03-29T09:22:25.669Z,29.63
2018-03-29T09:24:53.119Z,27.50
2018-03-29T09:27:21.328Z,39.23
2018-03-29T09:29:48.796Z,32.60
2018-03-29T09:32:16.207Z,29.83
2018-03-29T09:34:43.619Z,32.33
2018-03-29T09:37:11.048Z,32.63
2018-03-29T09:39:38.464Z,35.57
2018-03-29T09:42:05.878Z,30.33
2018-03-29T09:44:33.290Z,34.80
2018-03-29T09:47:00.697Z,39.20
2018-03-29T09:49:28.111Z,32.80
2018-03-29T09:51:56.321Z,34.10
2018-03-29T09:54:23.739Z,37.07
2018-03-29T09:56:51.160Z,37.90
2018-03-29T09:59:18.576Z,37.80
2018-03-29T10:01:46.027Z,37.20
2018-03-29T10:04:13.425Z,33.10
2018-03-29T10:06:41.653Z,39.37
2018-03-29T10:09:09.054Z,35.23
2018-03-29T10:11:36.463Z,35.70
2018-03-29T10:14:03.883Z,39.03
2018-03-29T10:16:31.327Z,41.53
2018-03-29T10:18:58.734Z,35.80
2018-03-29T10:21:26.160Z,39.90
2018-03-29T10:23:53.617Z,40.93
2018-03-29T10:26:21.035Z,36.90
2018-03-29T10:28:48.451Z,36.80
2018-03-29T10:31:15.865Z,44.00
2018-03-29T10:33:43.324Z,45.17
2018-03-29T10:36:10.769Z,39.03
2018-03-29T10:38:38.202Z,43.63
2018-03-29T10:41:05.662Z,41.97
2018-03-29T10:43:34.167Z,40.75
2018-03-29T10:46:03.335Z,42.30
2018-03-29T10:48:30.767Z,42.63
2018-03-29T10:50:58.194Z,48.53
2018-03-29T10:53:25.652Z,39.27
2018-03-29T10:55:53.095Z,43.20
2018-03-29T10:58:20.575Z,42.47
2018-03-29T11:00:47.987Z,43.23
2018-03-29T11:03:15.476Z,44.53
2018-03-29T11:05:42.886Z,48.00
2018-03-29T11:08:10.326Z,44.85
2018-03-29T11:10:37.759Z,44.10
2018-03-29T11:13:05.190Z,41.33
2018-03-29T11:15:32.591Z,52.20
2018-03-29T11:18:00.812Z,55.30
2018-03-29T11:20:28.983Z,46.47
2018-03-29T11:22:57.245Z,49.67
2018-03-29T11:25:24.664Z,54.43
2018-03-29T11:27:52.078Z,48.10
2018-03-29T11:30:19.509Z,50.03
2018-03-29T11:32:46.943Z,47.50
2018-03-29T11:35:15.171Z,51.50
2018-03-29T11:37:42.599Z,58.90
2018-03-29T11:40:10.902Z,51.63
2018-03-29T11:42:38.557Z,49.93
2018-03-29T11:45:12.636Z,43.10
2018-03-29T11:47:40.077Z,46.40
2018-03-29T11:50:07.516Z,45.13
2018-03-29T11:52:35.710Z,40.23
2018-03-29T11:55:03.118Z,41.50
2018-03-29T11:57:30.582Z,41.00
2018-03-29T11:59:58.080Z,40.50
2018-03-29T12:02:25.463Z,43.37
2018-03-29T12:04:53.698Z,44.17
2018-03-29T12:07:21.110Z,44.00
2018-03-29T12:09:49.291Z,40.27
2018-03-29T12:12:16.699Z,43.00
2018-03-29T12:14:44.146Z,33.77
2018-03-29T12:17:12.354Z,49.97
2018-03-29T12:19:40.550Z,40.00
2018-03-29T12:22:07.982Z,37.63
2018-03-29T12:24:36.171Z,40.23
2018-03-29T12:27:03.768Z,39.70
2018-03-29T12:29:31.209Z,42.07
2018-03-29T12:31:58.650Z,39.97
2018-03-29T12:34:26.080Z,43.90
2018-03-29T12:36:53.510Z,39.40
2018-03-29T12:39:21.012Z,38.77
2018-03-29T12:41:48.434Z,39.47
2018-03-29T12:44:15.862Z,37.07
2018-03-29T12:46:43.368Z,42.20
2018-03-29T12:49:10.769Z,42.53
2018-03-29T12:51:38.957Z,43.20
2018-03-29T12:54:07.136Z,41.60
2018-03-29T12:56:47.938Z,39.97
2018-03-29T12:59:15.358Z,46.03
2018-03-29T13:01:42.784Z,45.70
2018-03-29T13:04:11.066Z,42.83
2018-03-29T13:06:39.259Z,39.93
2018-03-29T13:09:06.688Z,47.73
2018-03-29T13:11:36.539Z,34.73
2018-03-29T13:14:03.930Z,42.63
2018-03-29T13:16:31.361Z,37.73
2018-03-29T13:18:58.786Z,38.37
2018-03-29T13:21:26.239Z,42.10
2018-03-29T13:23:53.682Z,43.03
2018-03-29T13:26:21.850Z,38.70
2018-03-29T13:28:50.038Z,42.70
2018-03-29T13:31:18.219Z,36.23
2018-03-29T13:33:46.403Z,30.43
2018-03-29T13:36:13.815Z,23.17
2018-03-29T13:38:41.269Z,25.27
2018-03-29T13:41:08.690Z,27.20
2018-03-29T13:43:37.040Z,22.37
2018-03-29T13:46:04.450Z,17.43
2018-03-29T13:48:31.864Z,22.03
2018-03-29T13:50:59.292Z,24.60
2018-03-29T13:53:26.728Z,18.00
2018-03-29T13:55:54.133Z,23.60
2018-03-29T13:58:21.639Z,22.47
2018-03-29T14:00:49.827Z,26.80
2018-03-29T14:03:17.248Z,24.77
2018-03-29T14:05:44.661Z,24.40
2018-03-29T14:08:13.634Z,29.57
2018-03-29T14:10:41.835Z,26.83
2018-03-29T14:13:09.286Z,25.70
2018-03-29T14:15:37.498Z,22.43
2018-03-29T14:18:04.914Z,23.00
2018-03-29T14:20:32.372Z,26.07
2018-03-29T14:22:59.808Z,27.27
2018-03-29T14:25:27.986Z,24.67
2018-03-29T14:27:56.196Z,25.70
2018-03-29T14:30:23.640Z,23.77
2018-03-29T14:32:51.139Z,30.80
2018-03-29T14:35:18.560Z,23.53
2018-03-29T14:37:46.742Z,24.50
2018-03-29T14:40:14.963Z,29.73
2018-03-29T14:42:43.165Z,26.57
2018-03-29T14:45:10.572Z,28.00
2018-03-29T14:47:38.223Z,27.42
2018-03-29T14:50:05.686Z,28.50
2018-03-29T14:52:33.115Z,28.50
2018-03-29T14:55:01.268Z,28.83
2018-03-29T14:57:28.683Z,23.50
2018-03-29T14:59:56.135Z,26.10
2018-03-29T15:02:24.294Z,25.23
2018-03-29T15:04:52.500Z,25.93
2018-03-29T15:07:20.686Z,24.77
2018-03-29T15:09:48.169Z,24.83
2018-03-29T15:12:16.334Z,28.77
2018-03-29T15:14:44.580Z,21.83
2018-03-29T15:17:12.206Z,22.97
2018-03-29T15:19:40.389Z,20.87
2018-03-29T15:22:09.516Z,21.50
2018-03-29T15:24:37.034Z,16.40
2018-03-29T15:27:04.418Z,24.13
2018-03-29T15:29:32.676Z,14.40
2018-03-29T15:32:00.132Z,16.87
2018-03-29T15:34:27.542Z,17.93
2018-03-29T15:36:54.936Z,14.10
2018-03-29T15:39:22.419Z,16.30
2018-03-29T15:41:49.882Z,15.50
2018-03-29T15:44:17.322Z,18.03
2018-03-29T15:46:45.621Z,14.80
2018-03-29T15:49:13.799Z,16.20
2018-03-29T15:51:42.007Z,15.10
2018-03-29T15:54:10.274Z,15.18
2018-03-29T15:56:39.378Z,16.43
2018-03-29T15:59:07.577Z,13.90
2018-03-29T16:01:35.005Z,14.30
2018-03-29T16:04:02.410Z,15.17
2018-03-29T16:06:29.818Z,22.67
2018-03-29T16:08:57.238Z,18.13
2018-03-29T16:11:25.447Z,18.43
2018-03-29T16:13:52.890Z,19.63
2018-03-29T16:16:21.089Z,20.07
2018-03-29T16:18:49.260Z,22.20
2018-03-29T16:21:17.454Z,20.33
2018-03-29T16:23:45.656Z,20.43
2018-03-29T16:26:13.136Z,22.67
2018-03-29T16:28:41.318Z,22.10
2018-03-29T16:31:08.748Z,19.60
2018-03-29T16:33:36.936Z,18.33
2018-03-29T16:36:04.362Z,19.57
2018-03-29T16:38:31.775Z,21.37
2018-03-29T16:40:59.956Z,17.60
2018-03-29T16:43:27.383Z,16.80
2018-03-29T16:45:54.890Z,19.37
2018-03-29T16:48:22.315Z,15.87
2018-03-29T16:50:49.734Z,19.13
2018-03-29T16:53:17.926Z,15.87
2018-03-29T16:55:46.135Z,20.17
2018-03-29T16:58:13.578Z,22.47
2018-03-29T17:00:41.020Z,19.13
2018-03-29T17:03:08.438Z,17.50
2018-03-29T17:05:35.903Z,20.43
2018-03-29T17:08:03.306Z,17.07
2018-03-29T17:10:30.781Z,18.10
2018-03-29T17:12:58.166Z,15.48
2018-03-29T17:15:25.580Z,19.23
2018-03-29T17:17:52.993Z,18.10
2018-03-29T17:20:20.407Z,16.97
2018-03-29T17:22:47.844Z,17.23
2018-03-29T17:25:15.255Z,18.27
2018-03-29T17:27:42.661Z,16.13
2018-03-29T17:30:10.121Z,14.00
2018-03-29T17:32:37.555Z,17.50
2018-03-29T17:35:05.732Z,16.40
2018-03-29T17:37:33.150Z,16.57
2018-03-29T17:40:01.334Z,16.60
2018-03-29T17:42:28.755Z,20.10
2018-03-29T17:44:56.185Z,21.73
2018-03-29T17:47:23.610Z,23.70
2018-03-29T17:49:51.026Z,22.73
2018-03-29T17:52:18.453Z,24.60
2018-03-29T17:54:45.871Z,27.87
2018-03-29T17:57:13.320Z,26.30
2018-03-29T17:59:40.727Z,32.23
2018-03-29T18:02:08.913Z,26.40
2018-03-29T18:04:36.326Z,24.83
2018-03-29T18:07:03.772Z,23.43
2018-03-29T18:09:31.182Z,24.20
2018-03-29T18:11:58.642Z,29.33
2018-03-29T18:14:26.070Z,30.00
2018-03-29T18:16:53.540Z,29.90
2018-03-29T18:19:21.701Z,27.57
2018-03-29T18:21:49.904Z,26.30
2018-03-29T18:24:17.330Z,33.63
2018-03-29T18:26:44.788Z,31.00
2018-03-29T18:29:13.439Z,27.57
2018-03-29T18:31:42.550Z,28.10
2018-03-29T18:34:10.014Z,26.33
2018-03-29T18:36:37.457Z,28.50
2018-03-29T18:39:04.913Z,33.77
2018-03-29T18:41:32.323Z,33.43
2018-03-29T18:43:59.785Z,29.17
2018-03-29T18:46:27.970Z,31.73
2018-03-29T18:48:55.381Z,30.40
2018-03-29T18:51:22.817Z,28.20
2018-03-29T18:53:50.240Z,30.97
2018-03-29T18:56:17.660Z,31.27
2018-03-29T18:58:45.087Z,33.20
2018-03-29T19:01:13.997Z,35.23
2018-03-29T19:03:43.110Z,30.33
2018-03-29T19:06:11.341Z,36.10
2018-03-29T19:08:38.772Z,37.03
2018-03-29T19:11:06.974Z,41.53
2018-03-29T19:13:34.447Z,37.53
2018-03-29T19:16:01.870Z,43.17
2018-03-29T19:18:29.297Z,45.43
2018-03-29T19:20:56.802Z,46.25
2018-03-29T19:23:24.217Z,45.47
2018-03-29T19:25:51.642Z,48.53
2018-03-29T19:28:19.085Z,49.77
2018-03-29T19:30:46.506Z,47.50
2018-03-29T19:33:13.953Z,49.80
2018-03-29T19:35:41.436Z,53.30
2018-03-29T19:38:08.922Z,47.20
2018-03-29T19:40:38.146Z,46.33
2018-03-29T19:43:05.635Z,52.27
2018-03-29T19:45:33.066Z,50.50
2018-03-29T19:48:01.257Z,54.20
2018-03-29T19:50:29.451Z,62.63
2018-03-29T19:52:57.653Z,56.23
2018-03-29T19:55:25.062Z,59.23
2018-03-29T19:57:52.599Z,57.10
2018-03-29T20:00:20.016Z,57.45
2018-03-29T20:02:48.221Z,63.65
2018-03-29T20:05:15.658Z,60.00
2018-03-29T20:07:43.145Z,60.30
2018-03-29T20:10:11.341Z,64.17
2018-03-29T20:12:39.514Z,61.53
2018-03-29T20:15:07.725Z,57.70
2018-03-29T20:17:35.146Z,57.13
2018-03-29T20:20:02.606Z,57.37
2018-03-29T20:22:30.100Z,66.20
2018-03-29T20:24:57.469Z,60.37
2018-03-29T20:27:25.668Z,55.73
2018-03-29T20:29:53.853Z,65.90
2018-03-29T20:32:22.073Z,54.90
2018-03-29T20:34:49.486Z,52.53
2018-03-29T20:37:16.914Z,52.90
2018-03-29T20:39:46.030Z,58.20
2018-03-29T20:42:13.472Z,51.13
2018-03-29T20:44:40.912Z,53.10
2018-03-29T20:47:09.102Z,51.20
2018-03-29T20:49:37.281Z,50.00
2018-03-29T20:52:05.467Z,51.80
2018-03-29T20:54:32.881Z,54.73
2018-03-29T20:57:00.316Z,53.90
2018-03-29T20:59:28.537Z,54.53
2018-03-29T21:01:55.999Z,51.67
2018-03-29T21:04:24.175Z,47.37
2018-03-29T21:06:51.660Z,49.27
2018-03-29T21:09:19.083Z,50.63
2018-03-29T21:11:48.006Z,56.67
2018-03-29T21:14:16.590Z,50.97
2018-03-29T21:16:45.707Z,50.77
2018-03-29T21:19:13.163Z,53.90
2018-03-29T21:21:41.437Z,54.60
2018-03-29T21:24:08.879Z,54.80
2018-03-29T21:26:36.430Z,54.73
2018-03-29T21:29:03.899Z,52.87
2018-03-29T21:31:31.286Z,53.67
2018-03-29T21:33:58.707Z,56.63
2018-03-29T21:36:26.896Z,56.67
2018-03-29T21:38:54.334Z,55.85
2018-03-29T21:41:21.776Z,55.50
2018-03-29T21:43:49.189Z,59.27
2018-03-29T21:46:17.398Z,56.55
2018-03-29T21:48:46.498Z,55.33
2018-03-29T21:51:13.914Z,62.23
2018-03-29T21:53:41.362Z,56.00
2018-03-29T21:56:08.778Z,58.03
2018-03-29T21:58:36.187Z,55.30
2018-03-29T22:01:03.622Z,64.10
2018-03-29T22:03:31.037Z,57.23
2018-03-29T22:05:59.021Z,85.37
2018-03-29T22:08:26.462Z,69.07
2018-03-29T22:10:53.914Z,69.67
2018-03-29T22:13:21.334Z,57.15
2018-03-29T22:15:48.764Z,65.20
2018-03-29T22:18:17.143Z,55.87
2018-03-29T22:20:45.335Z,58.43
2018-03-29T22:23:13.593Z,64.87
2018-03-29T22:25:41.030Z,73.00
2018-03-29T22:28:08.521Z,59.38
2018-03-29T22:30:35.956Z,68.57
2018-03-29T22:33:03.374Z,64.07
2018-03-29T22:35:30.798Z,75.87
2018-03-29T22:37:58.237Z,92.37
2018-03-29T22:40:25.670Z,77.60
2018-03-29T22:42:53.114Z,68.17
2018-03-29T22:45:20.506Z,66.27
2018-03-29T22:47:47.969Z,102.67
2018-03-29T22:50:15.402Z,101.60
2018-03-29T22:52:42.836Z,85.87
2018-03-29T22:55:10.250Z,82.57
2018-03-29T22:57:37.679Z,79.57
2018-03-29T23:00:05.867Z,77.07
2018-03-29T23:02:33.325Z,67.00
2018-03-29T23:05:00.732Z,68.67
2018-03-29T23:07:28.170Z,66.00
2018-03-29T23:09:56.376Z,66.77
2018-03-29T23:12:23.814Z,69.90
2018-03-29T23:14:52.010Z,74.03
2018-03-29T23:17:20.220Z,67.70
2018-03-29T23:19:49.183Z,69.87
2018-03-29T23:22:18.318Z,67.97
2018-03-29T23:24:45.776Z,66.93
2018-03-29T23:27:13.987Z,68.57
2018-03-29T23:29:41.433Z,68.20
2018-03-29T23:32:09.615Z,73.13
2018-03-29T23:34:37.798Z,71.83
2018-03-29T23:37:05.239Z,78.30
2018-03-29T23:39:32.660Z,71.13
2018-03-29T23:42:00.104Z,72.07
2018-03-29T23:44:28.308Z,72.30
2018-03-29T23:46:55.738Z,75.30
2018-03-29T23:49:23.171Z,78.10
2018-03-29T23:51:50.655Z,80.03
2018-03-29T23:54:19.018Z,79.43
2018-03-29T23:56:46.432Z,74.73
2018-03-29T23:59:13.901Z,83.53
